Terminal Aerodrome Forecast
Issued by NWS

Home | Current Version | Previous Version | Text Only | Print | Product List | Glossary On
Versions: 1 2 3 4 5 6 7 8 9 10 11 12 13 14 15 16
600
FTUS45 KABQ 261140
TAFAEG
TAF
KAEG 261140Z 2612/2712 21009KT P6SM SKC
     FM261630 22015G25KT P6SM SKC
     FM261900 23021G31KT P6SM SKC
     FM270200 24015G25KT P6SM SKC
     FM270700 25010KT P6SM SKC
     FM271000 24006KT P6SM SKC=

USA.gov is the U.S. government's official web portal to all federal, state and local government web resources and services.